sensor_id;sensor_type;location;lat;lon;timestamp;P1;durP1;ratioP1;P2;durP2;ratioP2
56736;SDS011;42618;51.226;4.910;2023-11-22T00:02:18;37.13;;;18.33;;
56736;SDS011;42618;51.226;4.910;2023-11-22T00:04:45;43.30;;;18.43;;
56736;SDS011;42618;51.226;4.910;2023-11-22T00:07:12;43.88;;;19.05;;
56736;SDS011;42618;51.226;4.910;2023-11-22T00:09:39;42.08;;;19.17;;
56736;SDS011;42618;51.226;4.910;2023-11-22T00:12:05;37.53;;;17.80;;
56736;SDS011;42618;51.226;4.910;2023-11-22T00:14:32;38.72;;;18.33;;
56736;SDS011;42618;51.226;4.910;2023-11-22T00:17:01;38.30;;;18.85;;
56736;SDS011;42618;51.226;4.910;2023-11-22T00:19:28;41.88;;;19.65;;
56736;SDS011;42618;51.226;4.910;2023-11-22T00:21:57;40.33;;;19.35;;
56736;SDS011;42618;51.226;4.910;2023-11-22T00:24:23;36.40;;;17.52;;
56736;SDS011;42618;51.226;4.910;2023-11-22T00:26:50;41.47;;;16.75;;
56736;SDS011;42618;51.226;4.910;2023-11-22T00:29:16;36.42;;;17.38;;
56736;SDS011;42618;51.226;4.910;2023-11-22T00:31:43;37.42;;;17.45;;
56736;SDS011;42618;51.226;4.910;2023-11-22T00:34:11;37.65;;;16.77;;
56736;SDS011;42618;51.226;4.910;2023-11-22T00:36:38;40.05;;;16.95;;
56736;SDS011;42618;51.226;4.910;2023-11-22T00:39:04;42.30;;;16.48;;
56736;SDS011;42618;51.226;4.910;2023-11-22T00:41:31;34.80;;;16.70;;
56736;SDS011;42618;51.226;4.910;2023-11-22T00:43:58;36.87;;;16.60;;
56736;SDS011;42618;51.226;4.910;2023-11-22T00:46:25;41.67;;;18.25;;
56736;SDS011;42618;51.226;4.910;2023-11-22T00:48:52;36.63;;;17.52;;
56736;SDS011;42618;51.226;4.910;2023-11-22T00:51:18;35.22;;;16.20;;
56736;SDS011;42618;51.226;4.910;2023-11-22T00:53:46;35.42;;;17.30;;
56736;SDS011;42618;51.226;4.910;2023-11-22T00:56:13;36.30;;;17.63;;
56736;SDS011;42618;51.226;4.910;2023-11-22T00:58:40;34.58;;;16.33;;
56736;SDS011;42618;51.226;4.910;2023-11-22T01:01:07;34.65;;;16.63;;
56736;SDS011;42618;51.226;4.910;2023-11-22T01:03:34;36.63;;;17.17;;
56736;SDS011;42618;51.226;4.910;2023-11-22T01:08:28;30.42;;;14.95;;
56736;SDS011;42618;51.226;4.910;2023-11-22T01:10:55;35.70;;;15.52;;
56736;SDS011;42618;51.226;4.910;2023-11-22T01:13:24;35.33;;;16.10;;
56736;SDS011;42618;51.226;4.910;2023-11-22T01:15:51;37.85;;;15.38;;
56736;SDS011;42618;51.226;4.910;2023-11-22T01:18:17;35.03;;;15.43;;
56736;SDS011;42618;51.226;4.910;2023-11-22T01:20:45;34.85;;;16.35;;
56736;SDS011;42618;51.226;4.910;2023-11-22T01:23:11;37.58;;;16.77;;
56736;SDS011;42618;51.226;4.910;2023-11-22T01:25:39;38.63;;;16.80;;
56736;SDS011;42618;51.226;4.910;2023-11-22T01:28:06;37.15;;;16.60;;
56736;SDS011;42618;51.226;4.910;2023-11-22T01:30:33;43.30;;;17.45;;
56736;SDS011;42618;51.226;4.910;2023-11-22T01:32:59;36.13;;;16.67;;
56736;SDS011;42618;51.226;4.910;2023-11-22T01:35:26;37.63;;;17.70;;
56736;SDS011;42618;51.226;4.910;2023-11-22T01:37:53;42.00;;;17.15;;
56736;SDS011;42618;51.226;4.910;2023-11-22T01:40:20;35.90;;;16.42;;
56736;SDS011;42618;51.226;4.910;2023-11-22T01:42:47;40.17;;;16.65;;
56736;SDS011;42618;51.226;4.910;2023-11-22T01:45:13;36.63;;;16.58;;
56736;SDS011;42618;51.226;4.910;2023-11-22T01:47:41;33.22;;;15.63;;
56736;SDS011;42618;51.226;4.910;2023-11-22T01:50:08;34.23;;;15.00;;
56736;SDS011;42618;51.226;4.910;2023-11-22T01:52:35;35.92;;;15.80;;
56736;SDS011;42618;51.226;4.910;2023-11-22T01:55:02;29.35;;;14.30;;
56736;SDS011;42618;51.226;4.910;2023-11-22T01:57:33;39.30;;;15.90;;
56736;SDS011;42618;51.226;4.910;2023-11-22T02:00:02;43.80;;;16.50;;
56736;SDS011;42618;51.226;4.910;2023-11-22T02:02:38;35.15;;;16.17;;
56736;SDS011;42618;51.226;4.910;2023-11-22T02:05:05;38.78;;;16.92;;
56736;SDS011;42618;51.226;4.910;2023-11-22T02:07:31;35.78;;;16.42;;
56736;SDS011;42618;51.226;4.910;2023-11-22T02:09:58;37.88;;;16.10;;
56736;SDS011;42618;51.226;4.910;2023-11-22T02:12:25;36.55;;;16.05;;
56736;SDS011;42618;51.226;4.910;2023-11-22T02:14:51;35.55;;;16.77;;
56736;SDS011;42618;51.226;4.910;2023-11-22T02:17:18;34.88;;;15.95;;
56736;SDS011;42618;51.226;4.910;2023-11-22T02:19:45;35.63;;;15.50;;
56736;SDS011;42618;51.226;4.910;2023-11-22T02:22:12;36.75;;;16.25;;
56736;SDS011;42618;51.226;4.910;2023-11-22T02:24:38;36.22;;;16.05;;
56736;SDS011;42618;51.226;4.910;2023-11-22T02:27:05;36.83;;;16.20;;
56736;SDS011;42618;51.226;4.910;2023-11-22T02:29:33;34.20;;;15.88;;
56736;SDS011;42618;51.226;4.910;2023-11-22T02:31:59;33.35;;;15.75;;
56736;SDS011;42618;51.226;4.910;2023-11-22T02:34:26;33.47;;;15.43;;
56736;SDS011;42618;51.226;4.910;2023-11-22T02:36:53;33.60;;;14.27;;
56736;SDS011;42618;51.226;4.910;2023-11-22T02:39:32;33.55;;;15.15;;
56736;SDS011;42618;51.226;4.910;2023-11-22T02:42:02;30.55;;;14.75;;
56736;SDS011;42618;51.226;4.910;2023-11-22T02:44:30;28.73;;;14.63;;
56736;SDS011;42618;51.226;4.910;2023-11-22T02:46:57;32.80;;;14.30;;
56736;SDS011;42618;51.226;4.910;2023-11-22T02:49:24;30.38;;;14.68;;
56736;SDS011;42618;51.226;4.910;2023-11-22T02:51:51;31.55;;;14.05;;
56736;SDS011;42618;51.226;4.910;2023-11-22T02:54:18;29.25;;;14.18;;
56736;SDS011;42618;51.226;4.910;2023-11-22T02:56:45;29.42;;;14.40;;
56736;SDS011;42618;51.226;4.910;2023-11-22T02:59:12;27.30;;;14.05;;
56736;SDS011;42618;51.226;4.910;2023-11-22T03:04:12;25.77;;;12.23;;
56736;SDS011;42618;51.226;4.910;2023-11-22T03:06:40;30.58;;;13.50;;
56736;SDS011;42618;51.226;4.910;2023-11-22T03:09:07;30.80;;;14.15;;
56736;SDS011;42618;51.226;4.910;2023-11-22T03:11:34;32.88;;;13.27;;
56736;SDS011;42618;51.226;4.910;2023-11-22T03:14:01;28.45;;;13.45;;
56736;SDS011;42618;51.226;4.910;2023-11-22T03:16:30;31.00;;;14.05;;
56736;SDS011;42618;51.226;4.910;2023-11-22T03:18:57;30.30;;;14.13;;
56736;SDS011;42618;51.226;4.910;2023-11-22T03:21:24;30.15;;;14.75;;
56736;SDS011;42618;51.226;4.910;2023-11-22T03:23:54;32.85;;;14.50;;
56736;SDS011;42618;51.226;4.910;2023-11-22T03:26:20;34.08;;;14.43;;
56736;SDS011;42618;51.226;4.910;2023-11-22T03:28:47;32.42;;;15.18;;
56736;SDS011;42618;51.226;4.910;2023-11-22T03:31:14;30.90;;;14.98;;
56736;SDS011;42618;51.226;4.910;2023-11-22T03:33:40;30.08;;;14.70;;
56736;SDS011;42618;51.226;4.910;2023-11-22T03:36:07;35.00;;;14.15;;
56736;SDS011;42618;51.226;4.910;2023-11-22T03:38:34;33.90;;;14.00;;
56736;SDS011;42618;51.226;4.910;2023-11-22T03:41:00;31.80;;;14.00;;
56736;SDS011;42618;51.226;4.910;2023-11-22T03:43:27;31.50;;;14.27;;
56736;SDS011;42618;51.226;4.910;2023-11-22T03:45:54;29.70;;;14.40;;
56736;SDS011;42618;51.226;4.910;2023-11-22T03:48:21;30.27;;;13.95;;
56736;SDS011;42618;51.226;4.910;2023-11-22T03:50:50;29.00;;;13.82;;
56736;SDS011;42618;51.226;4.910;2023-11-22T03:53:17;30.08;;;13.63;;
56736;SDS011;42618;51.226;4.910;2023-11-22T03:58:11;27.67;;;13.15;;
56736;SDS011;42618;51.226;4.910;2023-11-22T04:00:38;29.20;;;13.20;;
56736;SDS011;42618;51.226;4.910;2023-11-22T04:03:04;31.55;;;13.00;;
56736;SDS011;42618;51.226;4.910;2023-11-22T04:05:31;28.80;;;13.23;;
56736;SDS011;42618;51.226;4.910;2023-11-22T04:07:58;39.88;;;14.55;;
56736;SDS011;42618;51.226;4.910;2023-11-22T04:10:25;55.45;;;15.32;;
56736;SDS011;42618;51.226;4.910;2023-11-22T04:12:52;48.30;;;13.98;;
56736;SDS011;42618;51.226;4.910;2023-11-22T04:15:19;129.50;;;16.80;;
56736;SDS011;42618;51.226;4.910;2023-11-22T04:17:45;134.43;;;16.60;;
56736;SDS011;42618;51.226;4.910;2023-11-22T04:20:14;179.82;;;15.73;;
56736;SDS011;42618;51.226;4.910;2023-11-22T04:22:41;238.93;;;17.25;;
56736;SDS011;42618;51.226;4.910;2023-11-22T04:25:08;190.73;;;15.37;;
56736;SDS011;42618;51.226;4.910;2023-11-22T04:27:35;140.32;;;14.70;;
56736;SDS011;42618;51.226;4.910;2023-11-22T04:30:01;132.32;;;14.00;;
56736;SDS011;42618;51.226;4.910;2023-11-22T04:32:28;77.45;;;14.80;;
56736;SDS011;42618;51.226;4.910;2023-11-22T04:34:55;173.90;;;18.55;;
56736;SDS011;42618;51.226;4.910;2023-11-22T04:37:22;111.63;;;15.68;;
56736;SDS011;42618;51.226;4.910;2023-11-22T04:39:52;138.27;;;16.38;;
56736;SDS011;42618;51.226;4.910;2023-11-22T04:42:19;105.68;;;15.45;;
56736;SDS011;42618;51.226;4.910;2023-11-22T04:44:47;138.07;;;16.17;;
56736;SDS011;42618;51.226;4.910;2023-11-22T04:47:14;130.82;;;15.25;;
56736;SDS011;42618;51.226;4.910;2023-11-22T04:49:41;141.97;;;15.70;;
56736;SDS011;42618;51.226;4.910;2023-11-22T04:52:07;157.13;;;16.13;;
56736;SDS011;42618;51.226;4.910;2023-11-22T04:54:34;125.00;;;15.60;;
56736;SDS011;42618;51.226;4.910;2023-11-22T04:57:00;100.68;;;14.70;;
56736;SDS011;42618;51.226;4.910;2023-11-22T04:59:27;129.85;;;14.38;;
56736;SDS011;42618;51.226;4.910;2023-11-22T05:01:54;127.00;;;14.63;;
56736;SDS011;42618;51.226;4.910;2023-11-22T05:04:20;159.68;;;14.60;;
56736;SDS011;42618;51.226;4.910;2023-11-22T05:06:47;145.95;;;14.25;;
56736;SDS011;42618;51.226;4.910;2023-11-22T05:09:13;111.88;;;15.90;;
56736;SDS011;42618;51.226;4.910;2023-11-22T05:11:40;89.55;;;15.85;;
56736;SDS011;42618;51.226;4.910;2023-11-22T05:14:07;130.73;;;17.73;;
56736;SDS011;42618;51.226;4.910;2023-11-22T05:16:34;84.70;;;15.65;;
56736;SDS011;42618;51.226;4.910;2023-11-22T05:19:01;59.47;;;16.10;;
56736;SDS011;42618;51.226;4.910;2023-11-22T05:21:27;49.22;;;16.02;;
56736;SDS011;42618;51.226;4.910;2023-11-22T05:23:54;53.67;;;16.48;;
56736;SDS011;42618;51.226;4.910;2023-11-22T05:26:21;42.22;;;15.32;;
56736;SDS011;42618;51.226;4.910;2023-11-22T05:28:48;61.22;;;15.70;;
56736;SDS011;42618;51.226;4.910;2023-11-22T05:31:14;58.25;;;14.82;;
56736;SDS011;42618;51.226;4.910;2023-11-22T05:33:41;41.78;;;15.38;;
56736;SDS011;42618;51.226;4.910;2023-11-22T05:36:08;41.72;;;14.85;;
56736;SDS011;42618;51.226;4.910;2023-11-22T05:38:36;50.40;;;14.82;;
56736;SDS011;42618;51.226;4.910;2023-11-22T05:43:31;155.68;;;15.50;;
56736;SDS011;42618;51.226;4.910;2023-11-22T05:45:57;91.10;;;15.60;;
56736;SDS011;42618;51.226;4.910;2023-11-22T05:48:24;135.02;;;15.55;;
56736;SDS011;42618;51.226;4.910;2023-11-22T05:50:51;89.63;;;15.77;;
56736;SDS011;42618;51.226;4.910;2023-11-22T05:53:18;127.32;;;16.48;;
56736;SDS011;42618;51.226;4.910;2023-11-22T05:55:48;115.00;;;16.30;;
56736;SDS011;42618;51.226;4.910;2023-11-22T05:58:15;110.72;;;15.60;;
56736;SDS011;42618;51.226;4.910;2023-11-22T06:00:48;134.25;;;17.52;;
56736;SDS011;42618;51.226;4.910;2023-11-22T06:03:14;113.85;;;17.88;;
56736;SDS011;42618;51.226;4.910;2023-11-22T06:05:41;56.80;;;17.77;;
56736;SDS011;42618;51.226;4.910;2023-11-22T06:08:08;123.78;;;17.75;;
56736;SDS011;42618;51.226;4.910;2023-11-22T06:13:04;87.85;;;17.33;;
56736;SDS011;42618;51.226;4.910;2023-11-22T06:15:31;88.38;;;16.08;;
56736;SDS011;42618;51.226;4.910;2023-11-22T06:17:58;102.03;;;16.50;;
56736;SDS011;42618;51.226;4.910;2023-11-22T06:20:25;118.95;;;17.42;;
56736;SDS011;42618;51.226;4.910;2023-11-22T06:22:53;243.32;;;18.02;;
56736;SDS011;42618;51.226;4.910;2023-11-22T06:25:20;313.85;;;29.30;;
56736;SDS011;42618;51.226;4.910;2023-11-22T06:27:47;349.95;;;26.33;;
56736;SDS011;42618;51.226;4.910;2023-11-22T06:30:13;321.50;;;25.02;;
56736;SDS011;42618;51.226;4.910;2023-11-22T06:32:41;222.43;;;21.65;;
56736;SDS011;42618;51.226;4.910;2023-11-22T06:35:09;211.73;;;20.30;;
56736;SDS011;42618;51.226;4.910;2023-11-22T06:37:36;179.02;;;20.02;;
56736;SDS011;42618;51.226;4.910;2023-11-22T06:40:03;111.88;;;16.85;;
56736;SDS011;42618;51.226;4.910;2023-11-22T06:42:30;112.55;;;16.77;;
56736;SDS011;42618;51.226;4.910;2023-11-22T06:44:56;33.95;;;14.10;;
56736;SDS011;42618;51.226;4.910;2023-11-22T06:47:26;33.90;;;15.02;;
56736;SDS011;42618;51.226;4.910;2023-11-22T06:49:54;34.25;;;15.23;;
56736;SDS011;42618;51.226;4.910;2023-11-22T06:52:20;26.60;;;13.98;;
56736;SDS011;42618;51.226;4.910;2023-11-22T06:54:47;30.13;;;14.27;;
56736;SDS011;42618;51.226;4.910;2023-11-22T06:57:13;32.58;;;15.52;;
56736;SDS011;42618;51.226;4.910;2023-11-22T06:59:40;41.38;;;18.63;;
56736;SDS011;42618;51.226;4.910;2023-11-22T07:02:07;65.38;;;22.17;;
56736;SDS011;42618;51.226;4.910;2023-11-22T07:04:34;83.22;;;21.55;;
56736;SDS011;42618;51.226;4.910;2023-11-22T07:07:01;109.45;;;21.90;;
56736;SDS011;42618;51.226;4.910;2023-11-22T07:09:30;118.28;;;17.92;;
56736;SDS011;42618;51.226;4.910;2023-11-22T07:11:57;138.65;;;19.83;;
56736;SDS011;42618;51.226;4.910;2023-11-22T07:14:25;111.18;;;18.92;;
56736;SDS011;42618;51.226;4.910;2023-11-22T07:16:53;113.22;;;20.02;;
56736;SDS011;42618;51.226;4.910;2023-11-22T07:19:20;140.27;;;20.58;;
56736;SDS011;42618;51.226;4.910;2023-11-22T07:21:48;74.65;;;15.63;;
56736;SDS011;42618;51.226;4.910;2023-11-22T07:24:15;122.47;;;16.52;;
56736;SDS011;42618;51.226;4.910;2023-11-22T07:26:42;122.35;;;17.67;;
56736;SDS011;42618;51.226;4.910;2023-11-22T07:29:09;124.03;;;18.15;;
56736;SDS011;42618;51.226;4.910;2023-11-22T07:31:36;113.18;;;17.60;;
56736;SDS011;42618;51.226;4.910;2023-11-22T07:34:03;162.57;;;18.48;;
56736;SDS011;42618;51.226;4.910;2023-11-22T07:36:29;156.25;;;18.48;;
56736;SDS011;42618;51.226;4.910;2023-11-22T07:38:57;258.40;;;20.52;;
56736;SDS011;42618;51.226;4.910;2023-11-22T07:41:23;173.05;;;18.48;;
56736;SDS011;42618;51.226;4.910;2023-11-22T07:43:50;205.70;;;24.15;;
56736;SDS011;42618;51.226;4.910;2023-11-22T07:46:17;170.65;;;19.65;;
56736;SDS011;42618;51.226;4.910;2023-11-22T07:48:45;208.73;;;20.05;;
56736;SDS011;42618;51.226;4.910;2023-11-22T07:51:14;245.38;;;20.20;;
56736;SDS011;42618;51.226;4.910;2023-11-22T07:53:46;211.98;;;19.48;;
56736;SDS011;42618;51.226;4.910;2023-11-22T07:56:15;275.48;;;20.75;;
56736;SDS011;42618;51.226;4.910;2023-11-22T07:58:44;263.35;;;21.73;;
56736;SDS011;42618;51.226;4.910;2023-11-22T08:01:11;218.32;;;19.83;;
56736;SDS011;42618;51.226;4.910;2023-11-22T08:03:40;148.68;;;19.23;;
56736;SDS011;42618;51.226;4.910;2023-11-22T08:06:13;161.95;;;18.10;;
56736;SDS011;42618;51.226;4.910;2023-11-22T08:08:40;272.88;;;19.27;;
56736;SDS011;42618;51.226;4.910;2023-11-22T08:11:07;169.02;;;17.58;;
56736;SDS011;42618;51.226;4.910;2023-11-22T08:13:41;196.63;;;16.13;;
56736;SDS011;42618;51.226;4.910;2023-11-22T08:16:14;213.05;;;16.58;;
56736;SDS011;42618;51.226;4.910;2023-11-22T08:18:41;160.30;;;16.30;;
56736;SDS011;42618;51.226;4.910;2023-11-22T08:21:10;159.30;;;16.48;;
56736;SDS011;42618;51.226;4.910;2023-11-22T08:23:37;180.65;;;31.75;;
56736;SDS011;42618;51.226;4.910;2023-11-22T08:26:03;135.07;;;20.75;;
56736;SDS011;42618;51.226;4.910;2023-11-22T08:28:31;182.15;;;18.77;;
56736;SDS011;42618;51.226;4.910;2023-11-22T08:30:58;174.98;;;17.38;;
56736;SDS011;42618;51.226;4.910;2023-11-22T08:33:24;177.88;;;16.27;;
56736;SDS011;42618;51.226;4.910;2023-11-22T08:35:51;250.70;;;18.65;;
56736;SDS011;42618;51.226;4.910;2023-11-22T08:38:24;200.73;;;18.30;;
56736;SDS011;42618;51.226;4.910;2023-11-22T08:40:52;194.52;;;21.20;;
56736;SDS011;42618;51.226;4.910;2023-11-22T08:43:19;216.02;;;19.60;;
56736;SDS011;42618;51.226;4.910;2023-11-22T08:45:49;296.85;;;19.40;;
56736;SDS011;42618;51.226;4.910;2023-11-22T08:48:23;172.63;;;18.15;;
56736;SDS011;42618;51.226;4.910;2023-11-22T08:50:50;128.73;;;19.25;;
56736;SDS011;42618;51.226;4.910;2023-11-22T08:53:19;171.60;;;17.73;;
56736;SDS011;42618;51.226;4.910;2023-11-22T08:55:47;119.15;;;17.35;;
56736;SDS011;42618;51.226;4.910;2023-11-22T08:58:13;136.32;;;17.20;;
56736;SDS011;42618;51.226;4.910;2023-11-22T09:00:40;192.98;;;19.63;;
56736;SDS011;42618;51.226;4.910;2023-11-22T09:03:11;206.27;;;19.52;;
56736;SDS011;42618;51.226;4.910;2023-11-22T09:05:39;128.88;;;18.55;;
56736;SDS011;42618;51.226;4.910;2023-11-22T09:08:06;139.53;;;19.07;;
56736;SDS011;42618;51.226;4.910;2023-11-22T09:10:45;135.30;;;18.58;;
56736;SDS011;42618;51.226;4.910;2023-11-22T09:13:11;124.30;;;28.05;;
56736;SDS011;42618;51.226;4.910;2023-11-22T09:15:41;46.28;;;9.48;;
56736;SDS011;42618;51.226;4.910;2023-11-22T09:18:10;46.25;;;12.88;;
56736;SDS011;42618;51.226;4.910;2023-11-22T09:20:39;152.25;;;28.17;;
56736;SDS011;42618;51.226;4.910;2023-11-22T09:23:05;86.57;;;16.45;;
56736;SDS011;42618;51.226;4.910;2023-11-22T09:25:32;69.07;;;17.55;;
56736;SDS011;42618;51.226;4.910;2023-11-22T09:28:01;101.88;;;21.75;;
56736;SDS011;42618;51.226;4.910;2023-11-22T09:30:28;116.18;;;19.52;;
56736;SDS011;42618;51.226;4.910;2023-11-22T09:33:14;86.78;;;18.63;;
56736;SDS011;42618;51.226;4.910;2023-11-22T09:35:45;70.55;;;18.98;;
56736;SDS011;42618;51.226;4.910;2023-11-22T09:38:14;62.03;;;16.83;;
56736;SDS011;42618;51.226;4.910;2023-11-22T09:40:47;59.97;;;16.00;;
56736;SDS011;42618;51.226;4.910;2023-11-22T09:43:14;81.60;;;19.95;;
56736;SDS011;42618;51.226;4.910;2023-11-22T09:45:49;71.15;;;18.50;;
56736;SDS011;42618;51.226;4.910;2023-11-22T09:48:23;72.10;;;19.83;;
56736;SDS011;42618;51.226;4.910;2023-11-22T09:51:04;80.03;;;21.52;;
56736;SDS011;42618;51.226;4.910;2023-11-22T09:53:52;80.07;;;22.00;;
56736;SDS011;42618;51.226;4.910;2023-11-22T09:56:20;77.75;;;22.13;;
56736;SDS011;42618;51.226;4.910;2023-11-22T09:58:47;64.50;;;18.65;;
56736;SDS011;42618;51.226;4.910;2023-11-22T10:01:18;68.18;;;20.75;;
56736;SDS011;42618;51.226;4.910;2023-11-22T10:03:44;77.15;;;20.90;;
56736;SDS011;42618;51.226;4.910;2023-11-22T10:06:11;81.55;;;23.48;;
56736;SDS011;42618;51.226;4.910;2023-11-22T10:08:38;102.78;;;32.45;;
56736;SDS011;42618;51.226;4.910;2023-11-22T10:11:05;83.80;;;23.03;;
56736;SDS011;42618;51.226;4.910;2023-11-22T10:13:33;82.63;;;23.20;;
56736;SDS011;42618;51.226;4.910;2023-11-22T10:16:11;100.15;;;24.38;;
56736;SDS011;42618;51.226;4.910;2023-11-22T10:18:39;82.00;;;23.70;;
56736;SDS011;42618;51.226;4.910;2023-11-22T10:21:16;82.47;;;21.83;;
56736;SDS011;42618;51.226;4.910;2023-11-22T10:23:44;71.80;;;21.40;;
56736;SDS011;42618;51.226;4.910;2023-11-22T10:26:14;79.32;;;22.00;;
56736;SDS011;42618;51.226;4.910;2023-11-22T10:28:42;68.93;;;21.65;;
56736;SDS011;42618;51.226;4.910;2023-11-22T10:31:10;92.68;;;31.45;;
56736;SDS011;42618;51.226;4.910;2023-11-22T10:33:40;90.38;;;30.73;;
56736;SDS011;42618;51.226;4.910;2023-11-22T10:36:09;79.68;;;24.80;;
56736;SDS011;42618;51.226;4.910;2023-11-22T10:38:36;67.70;;;20.27;;
56736;SDS011;42618;51.226;4.910;2023-11-22T10:41:12;76.43;;;23.55;;
56736;SDS011;42618;51.226;4.910;2023-11-22T10:43:40;76.53;;;25.90;;
56736;SDS011;42618;51.226;4.910;2023-11-22T10:46:08;81.70;;;25.13;;
56736;SDS011;42618;51.226;4.910;2023-11-22T10:48:39;78.75;;;23.80;;
56736;SDS011;42618;51.226;4.910;2023-11-22T10:51:06;92.50;;;27.88;;
56736;SDS011;42618;51.226;4.910;2023-11-22T10:53:33;77.72;;;24.70;;
56736;SDS011;42618;51.226;4.910;2023-11-22T10:56:11;85.45;;;25.25;;
56736;SDS011;42618;51.226;4.910;2023-11-22T10:58:42;71.53;;;22.20;;
56736;SDS011;42618;51.226;4.910;2023-11-22T11:01:10;82.13;;;25.45;;
56736;SDS011;42618;51.226;4.910;2023-11-22T11:03:37;81.75;;;28.65;;
56736;SDS011;42618;51.226;4.910;2023-11-22T11:06:07;74.95;;;22.17;;
56736;SDS011;42618;51.226;4.910;2023-11-22T11:08:37;79.35;;;25.23;;
56736;SDS011;42618;51.226;4.910;2023-11-22T11:11:07;64.28;;;22.48;;
56736;SDS011;42618;51.226;4.910;2023-11-22T11:13:33;70.40;;;23.45;;
56736;SDS011;42618;51.226;4.910;2023-11-22T11:16:00;72.22;;;24.77;;
56736;SDS011;42618;51.226;4.910;2023-11-22T11:18:27;68.97;;;23.70;;
56736;SDS011;42618;51.226;4.910;2023-11-22T11:20:55;61.50;;;22.58;;
56736;SDS011;42618;51.226;4.910;2023-11-22T11:23:23;52.60;;;16.80;;
56736;SDS011;42618;51.226;4.910;2023-11-22T11:25:54;58.40;;;22.20;;
56736;SDS011;42618;51.226;4.910;2023-11-22T11:28:25;66.57;;;21.90;;
56736;SDS011;42618;51.226;4.910;2023-11-22T11:30:54;71.53;;;22.77;;
56736;SDS011;42618;51.226;4.910;2023-11-22T11:33:55;63.80;;;21.85;;
56736;SDS011;42618;51.226;4.910;2023-11-22T11:36:24;53.47;;;18.73;;
56736;SDS011;42618;51.226;4.910;2023-11-22T11:38:55;44.85;;;17.08;;
56736;SDS011;42618;51.226;4.910;2023-11-22T11:41:26;81.47;;;30.38;;
56736;SDS011;42618;51.226;4.910;2023-11-22T11:43:56;55.58;;;20.77;;
56736;SDS011;42618;51.226;4.910;2023-11-22T11:46:23;45.17;;;17.58;;
56736;SDS011;42618;51.226;4.910;2023-11-22T11:48:52;38.08;;;15.77;;
56736;SDS011;42618;51.226;4.910;2023-11-22T11:51:20;35.35;;;15.45;;
56736;SDS011;42618;51.226;4.910;2023-11-22T11:53:47;46.03;;;18.13;;
56736;SDS011;42618;51.226;4.910;2023-11-22T11:56:14;28.30;;;13.23;;
56736;SDS011;42618;51.226;4.910;2023-11-22T11:58:42;42.50;;;18.07;;
56736;SDS011;42618;51.226;4.910;2023-11-22T12:03:36;63.83;;;24.20;;
56736;SDS011;42618;51.226;4.910;2023-11-22T12:06:03;56.60;;;23.40;;
56736;SDS011;42618;51.226;4.910;2023-11-22T12:08:30;57.55;;;25.48;;
56736;SDS011;42618;51.226;4.910;2023-11-22T12:11:02;45.53;;;19.33;;
56736;SDS011;42618;51.226;4.910;2023-11-22T12:13:31;47.17;;;18.83;;
56736;SDS011;42618;51.226;4.910;2023-11-22T12:15:58;49.93;;;19.57;;
56736;SDS011;42618;51.226;4.910;2023-11-22T12:18:25;40.75;;;18.02;;
56736;SDS011;42618;51.226;4.910;2023-11-22T12:23:26;51.15;;;20.92;;
56736;SDS011;42618;51.226;4.910;2023-11-22T12:25:56;70.03;;;32.70;;
56736;SDS011;42618;51.226;4.910;2023-11-22T12:28:26;56.05;;;23.48;;
56736;SDS011;42618;51.226;4.910;2023-11-22T12:30:53;48.90;;;21.25;;
56736;SDS011;42618;51.226;4.910;2023-11-22T12:33:20;51.23;;;22.03;;
56736;SDS011;42618;51.226;4.910;2023-11-22T12:35:47;56.53;;;27.25;;
56736;SDS011;42618;51.226;4.910;2023-11-22T12:38:17;48.08;;;20.48;;
56736;SDS011;42618;51.226;4.910;2023-11-22T12:40:45;47.88;;;19.77;;
56736;SDS011;42618;51.226;4.910;2023-11-22T12:43:14;48.90;;;20.10;;
56736;SDS011;42618;51.226;4.910;2023-11-22T12:45:42;48.45;;;18.63;;
56736;SDS011;42618;51.226;4.910;2023-11-22T12:48:23;43.13;;;16.25;;
56736;SDS011;42618;51.226;4.910;2023-11-22T12:50:51;40.97;;;17.38;;
56736;SDS011;42618;51.226;4.910;2023-11-22T12:55:48;29.77;;;14.68;;
56736;SDS011;42618;51.226;4.910;2023-11-22T13:00:43;45.40;;;19.55;;
56736;SDS011;42618;51.226;4.910;2023-11-22T13:05:40;46.85;;;19.65;;
56736;SDS011;42618;51.226;4.910;2023-11-22T13:08:11;44.22;;;18.40;;
56736;SDS011;42618;51.226;4.910;2023-11-22T13:10:40;46.70;;;19.80;;
56736;SDS011;42618;51.226;4.910;2023-11-22T13:13:09;34.90;;;13.98;;
56736;SDS011;42618;51.226;4.910;2023-11-22T13:15:36;36.78;;;14.98;;
56736;SDS011;42618;51.226;4.910;2023-11-22T13:18:02;36.83;;;14.25;;
56736;SDS011;42618;51.226;4.910;2023-11-22T13:20:29;34.42;;;15.20;;
56736;SDS011;42618;51.226;4.910;2023-11-22T13:22:56;37.17;;;15.75;;
56736;SDS011;42618;51.226;4.910;2023-11-22T13:25:22;29.67;;;13.32;;
56736;SDS011;42618;51.226;4.910;2023-11-22T13:27:50;34.08;;;14.13;;
56736;SDS011;42618;51.226;4.910;2023-11-22T13:30:18;33.63;;;15.15;;
56736;SDS011;42618;51.226;4.910;2023-11-22T13:32:49;34.53;;;15.38;;
56736;SDS011;42618;51.226;4.910;2023-11-22T13:35:16;29.30;;;13.98;;
56736;SDS011;42618;51.226;4.910;2023-11-22T13:37:44;25.10;;;10.98;;
56736;SDS011;42618;51.226;4.910;2023-11-22T13:40:12;19.42;;;8.68;;
56736;SDS011;42618;51.226;4.910;2023-11-22T13:42:43;29.85;;;12.98;;
56736;SDS011;42618;51.226;4.910;2023-11-22T13:45:10;30.08;;;11.85;;
56736;SDS011;42618;51.226;4.910;2023-11-22T13:47:37;33.22;;;15.63;;
56736;SDS011;42618;51.226;4.910;2023-11-22T13:50:04;33.58;;;15.32;;
56736;SDS011;42618;51.226;4.910;2023-11-22T13:52:31;31.63;;;13.23;;
56736;SDS011;42618;51.226;4.910;2023-11-22T13:54:59;29.30;;;12.80;;
56736;SDS011;42618;51.226;4.910;2023-11-22T13:57:25;209.77;;;89.13;;
56736;SDS011;42618;51.226;4.910;2023-11-22T13:59:52;59.10;;;32.47;;
56736;SDS011;42618;51.226;4.910;2023-11-22T14:02:19;32.67;;;14.90;;
56736;SDS011;42618;51.226;4.910;2023-11-22T14:04:46;30.55;;;13.45;;
56736;SDS011;42618;51.226;4.910;2023-11-22T14:07:13;38.47;;;18.85;;
56736;SDS011;42618;51.226;4.910;2023-11-22T14:09:39;40.22;;;15.35;;
56736;SDS011;42618;51.226;4.910;2023-11-22T14:12:06;38.95;;;18.25;;
56736;SDS011;42618;51.226;4.910;2023-11-22T14:14:32;33.20;;;15.15;;
56736;SDS011;42618;51.226;4.910;2023-11-22T14:16:59;34.10;;;15.20;;
56736;SDS011;42618;51.226;4.910;2023-11-22T14:19:26;13.77;;;6.32;;
56736;SDS011;42618;51.226;4.910;2023-11-22T14:21:52;30.60;;;12.20;;
56736;SDS011;42618;51.226;4.910;2023-11-22T14:24:19;35.03;;;14.98;;
56736;SDS011;42618;51.226;4.910;2023-11-22T14:26:46;33.45;;;15.10;;
56736;SDS011;42618;51.226;4.910;2023-11-22T14:29:15;38.15;;;13.95;;
56736;SDS011;42618;51.226;4.910;2023-11-22T14:31:42;36.35;;;13.57;;
56736;SDS011;42618;51.226;4.910;2023-11-22T14:34:09;35.53;;;14.75;;
56736;SDS011;42618;51.226;4.910;2023-11-22T14:36:38;36.90;;;14.40;;
56736;SDS011;42618;51.226;4.910;2023-11-22T14:39:05;39.20;;;16.13;;
56736;SDS011;42618;51.226;4.910;2023-11-22T14:41:33;36.72;;;15.18;;
56736;SDS011;42618;51.226;4.910;2023-11-22T14:44:01;36.28;;;14.93;;
56736;SDS011;42618;51.226;4.910;2023-11-22T14:46:28;43.67;;;15.68;;
56736;SDS011;42618;51.226;4.910;2023-11-22T14:48:55;38.83;;;15.60;;